sim
Sign-in with your pilot id or email,
or register
Callsign
Passwort

Schedule Details

Flight Number: OEF1151
Departure: Hong Kong International Airport (VHHH) at 07:25
Arrival: Delhi Indira Gandhi International Airport (VIDP) at 13:10

Weather Information
Getting current METAR information for VHHH 271830Z 10012KT 9999 FEW035 25/18 Q1013 NOSIG
Getting current METAR information for VIDP 271830Z 00000KT 2200 FU NSC 20/13 Q1013 NOSIG

Schedule Frequency

Route Map